createdAt,value
2022-11-29T00:02:16.913Z,7.30
2022-11-29T00:04:43.854Z,7.20
2022-11-29T00:07:10.534Z,7.20
2022-11-29T00:09:37.178Z,7.20
2022-11-29T00:12:12.740Z,7.20
2022-11-29T00:14:39.261Z,7.20
2022-11-29T00:17:06.040Z,7.20
2022-11-29T00:19:32.610Z,7.20
2022-11-29T00:21:59.090Z,7.20
2022-11-29T00:24:25.740Z,7.20
2022-11-29T00:26:52.315Z,7.20
2022-11-29T00:29:18.809Z,7.20
2022-11-29T00:31:45.315Z,7.20
2022-11-29T00:34:11.853Z,7.20
2022-11-29T00:36:38.388Z,7.20
2022-11-29T00:39:04.877Z,7.20
2022-11-29T00:41:31.373Z,7.30
2022-11-29T00:43:57.901Z,7.30
2022-11-29T00:46:25.099Z,7.30
2022-11-29T00:48:51.623Z,7.30
2022-11-29T00:51:18.122Z,7.30
2022-11-29T00:53:44.659Z,7.30
2022-11-29T00:56:11.174Z,7.30
2022-11-29T00:58:37.769Z,7.40
2022-11-29T01:01:04.338Z,7.40
2022-11-29T01:03:30.892Z,7.40
2022-11-29T01:05:57.375Z,7.50
2022-11-29T01:08:23.891Z,7.50
2022-11-29T01:10:50.371Z,7.40
2022-11-29T01:13:16.945Z,7.40
2022-11-29T01:15:43.469Z,7.40
2022-11-29T01:18:10.388Z,7.40
2022-11-29T01:20:36.864Z,7.40
2022-11-29T01:23:03.481Z,7.40
2022-11-29T01:25:31.972Z,7.40
2022-11-29T01:27:58.507Z,7.40
2022-11-29T01:30:25.688Z,7.40
2022-11-29T01:32:52.259Z,7.40
2022-11-29T01:35:18.735Z,7.40
2022-11-29T01:37:45.218Z,7.50
2022-11-29T01:40:11.749Z,7.50
2022-11-29T01:42:38.242Z,7.50
2022-11-29T01:45:04.780Z,7.50
2022-11-29T01:47:31.308Z,7.50
2022-11-29T01:49:57.795Z,7.50
2022-11-29T01:52:24.369Z,7.50
2022-11-29T01:54:50.859Z,7.50
2022-11-29T01:57:17.337Z,7.50
2022-11-29T01:59:43.833Z,7.50
2022-11-29T02:02:10.353Z,7.50
2022-11-29T02:04:36.959Z,7.50
2022-11-29T02:07:03.462Z,7.50
2022-11-29T02:09:29.954Z,7.50
2022-11-29T02:11:56.509Z,7.50
2022-11-29T02:14:23.070Z,7.50
2022-11-29T02:16:55.008Z,7.50
2022-11-29T02:19:22.978Z,7.50
2022-11-29T02:21:49.501Z,7.50
2022-11-29T02:24:16.047Z,7.50
2022-11-29T02:26:42.527Z,7.50
2022-11-29T02:29:09.102Z,7.50
2022-11-29T02:31:35.587Z,7.50
2022-11-29T02:34:02.126Z,7.50
2022-11-29T02:36:28.615Z,7.50
2022-11-29T02:38:55.181Z,7.50
2022-11-29T02:41:21.863Z,7.50
2022-11-29T02:43:48.395Z,7.50
2022-11-29T02:46:14.887Z,7.50
2022-11-29T02:48:41.489Z,7.50
2022-11-29T02:51:08.006Z,7.50
2022-11-29T02:53:34.529Z,7.60
2022-11-29T02:56:01.119Z,7.60
2022-11-29T02:58:27.700Z,7.60
2022-11-29T03:00:54.176Z,7.60
2022-11-29T03:03:20.715Z,7.60
2022-11-29T03:05:47.231Z,7.70
2022-11-29T03:08:17.653Z,7.70
2022-11-29T03:10:44.138Z,7.70
2022-11-29T03:13:10.616Z,7.70
2022-11-29T03:15:37.318Z,7.70
2022-11-29T03:18:03.932Z,7.70
2022-11-29T03:20:30.494Z,7.70
2022-11-29T03:22:56.979Z,7.70
2022-11-29T03:25:23.502Z,7.80
2022-11-29T03:27:49.978Z,7.80
2022-11-29T03:30:16.521Z,7.80
2022-11-29T03:32:43.010Z,7.80
2022-11-29T03:35:09.504Z,7.80
2022-11-29T03:37:36.244Z,7.80
2022-11-29T03:40:02.745Z,7.90
2022-11-29T03:42:29.259Z,7.90
2022-11-29T03:44:55.790Z,7.90
2022-11-29T03:47:22.272Z,7.90
2022-11-29T03:49:48.756Z,7.90
2022-11-29T03:52:15.223Z,7.90
2022-11-29T03:54:43.219Z,7.90
2022-11-29T03:57:10.021Z,7.90
2022-11-29T03:59:36.530Z,7.90
2022-11-29T04:02:03.736Z,7.90
2022-11-29T04:04:30.241Z,7.90
2022-11-29T04:06:56.748Z,7.80
2022-11-29T04:09:23.227Z,7.90
2022-11-29T04:11:59.195Z,7.90
2022-11-29T04:14:25.729Z,7.90
2022-11-29T04:16:52.275Z,7.90
2022-11-29T04:19:18.822Z,7.90
2022-11-29T04:21:45.300Z,7.90
2022-11-29T04:24:11.791Z,7.90
2022-11-29T04:26:38.290Z,7.90
2022-11-29T04:29:04.779Z,7.90
2022-11-29T04:31:31.357Z,7.90
2022-11-29T04:33:57.871Z,7.90
2022-11-29T04:36:24.360Z,7.90
2022-11-29T04:38:50.856Z,7.90
2022-11-29T04:41:17.338Z,7.80
2022-11-29T04:43:43.902Z,7.80
2022-11-29T04:46:10.494Z,7.80
2022-11-29T04:48:37.323Z,7.80
2022-11-29T04:51:03.839Z,7.80
2022-11-29T04:53:30.580Z,7.80
2022-11-29T04:55:57.089Z,7.70
2022-11-29T04:58:23.688Z,7.70
2022-11-29T05:00:50.187Z,7.70
2022-11-29T05:03:16.901Z,7.70
2022-11-29T05:05:43.406Z,7.70
2022-11-29T05:08:09.943Z,7.70
2022-11-29T05:10:36.409Z,7.70
2022-11-29T05:13:02.916Z,7.60
2022-11-29T05:15:29.388Z,7.60
2022-11-29T05:17:56.513Z,7.70
2022-11-29T05:20:23.036Z,7.70
2022-11-29T05:22:49.536Z,7.70
2022-11-29T05:25:16.014Z,7.60
2022-11-29T05:27:42.557Z,7.60
2022-11-29T05:30:09.122Z,7.60
2022-11-29T05:32:35.750Z,7.60
2022-11-29T05:35:02.252Z,7.60
2022-11-29T05:37:28.756Z,7.60
2022-11-29T05:39:55.227Z,7.60
2022-11-29T05:42:21.754Z,7.50
2022-11-29T05:44:48.291Z,7.60
2022-11-29T05:47:14.834Z,7.60
2022-11-29T05:49:41.330Z,7.60
2022-11-29T05:52:07.805Z,7.50
2022-11-29T05:54:34.283Z,7.50
2022-11-29T05:57:00.802Z,7.50
2022-11-29T05:59:27.332Z,7.50
2022-11-29T06:01:53.960Z,7.50
2022-11-29T06:04:21.260Z,7.50
2022-11-29T06:06:47.784Z,7.50
2022-11-29T06:09:14.282Z,7.50
2022-11-29T06:11:40.799Z,7.50
2022-11-29T06:14:07.286Z,7.50
2022-11-29T06:16:33.819Z,7.50
2022-11-29T06:19:00.353Z,7.60
2022-11-29T06:21:27.462Z,7.50
2022-11-29T06:23:54.108Z,7.50
2022-11-29T06:26:22.583Z,7.40
2022-11-29T06:28:49.078Z,7.40
2022-11-29T06:31:15.631Z,7.40
2022-11-29T06:33:42.182Z,7.40
2022-11-29T06:36:08.715Z,7.40
2022-11-29T06:38:35.273Z,7.40
2022-11-29T06:41:02.532Z,7.40
2022-11-29T06:43:29.233Z,7.40
2022-11-29T06:45:55.817Z,7.40
2022-11-29T06:48:22.343Z,7.50
2022-11-29T06:50:48.914Z,7.50
2022-11-29T06:53:15.431Z,7.40
2022-11-29T06:55:42.051Z,7.40
2022-11-29T06:58:08.624Z,7.40
2022-11-29T07:00:35.202Z,7.50
2022-11-29T07:03:01.767Z,7.50
2022-11-29T07:05:28.404Z,7.50
2022-11-29T07:07:55.024Z,7.50
2022-11-29T07:10:21.642Z,7.50
2022-11-29T07:12:48.191Z,7.50
2022-11-29T07:15:14.762Z,7.50
2022-11-29T07:17:41.390Z,7.50
2022-11-29T07:20:08.610Z,7.50
2022-11-29T07:22:35.209Z,7.40
2022-11-29T07:25:01.712Z,7.40
2022-11-29T07:27:28.213Z,7.40
2022-11-29T07:29:54.734Z,7.50
2022-11-29T07:32:21.292Z,7.40
2022-11-29T07:34:48.535Z,7.40
2022-11-29T07:37:15.199Z,7.50
2022-11-29T07:39:41.788Z,7.50
2022-11-29T07:42:08.357Z,7.50
2022-11-29T07:44:34.890Z,7.50
2022-11-29T07:47:01.529Z,7.50
2022-11-29T07:49:28.128Z,7.50
2022-11-29T07:51:54.720Z,7.50
2022-11-29T07:54:22.201Z,7.50
2022-11-29T07:56:48.806Z,7.50
2022-11-29T07:59:15.410Z,7.50
2022-11-29T08:01:42.170Z,7.50
2022-11-29T08:04:08.716Z,7.50
2022-11-29T08:06:35.199Z,7.50
2022-11-29T08:09:01.699Z,7.50
2022-11-29T08:11:28.272Z,7.40
2022-11-29T08:13:54.763Z,7.40
2022-11-29T08:16:21.277Z,7.40
2022-11-29T08:18:48.412Z,7.50
2022-11-29T08:21:18.233Z,7.40
2022-11-29T08:23:44.798Z,7.40
2022-11-29T08:26:11.504Z,7.40
2022-11-29T08:28:38.094Z,7.40
2022-11-29T08:31:04.579Z,7.40
2022-11-29T08:33:31.344Z,7.40
2022-11-29T08:35:57.855Z,7.30
2022-11-29T08:38:24.395Z,7.30
2022-11-29T08:40:50.869Z,7.30
2022-11-29T08:43:17.357Z,7.30
2022-11-29T08:45:43.884Z,7.30
2022-11-29T08:48:10.466Z,7.40
2022-11-29T08:50:36.948Z,7.40
2022-11-29T08:53:22.451Z,7.40
2022-11-29T08:55:48.995Z,7.40
2022-11-29T08:58:15.531Z,7.40
2022-11-29T09:00:42.053Z,7.40
2022-11-29T09:03:27.356Z,7.40
2022-11-29T09:05:53.965Z,7.40
2022-11-29T09:08:20.530Z,7.40
2022-11-29T09:10:47.328Z,7.40
2022-11-29T09:13:13.872Z,7.40
2022-11-29T09:15:41.744Z,7.50
2022-11-29T09:18:08.287Z,7.50
2022-11-29T09:20:34.873Z,7.50
2022-11-29T09:23:01.427Z,7.40
2022-11-29T09:25:27.906Z,7.50
2022-11-29T09:27:54.393Z,7.40
2022-11-29T09:30:23.827Z,7.30
2022-11-29T09:32:50.559Z,7.30
2022-11-29T09:35:17.425Z,7.20
2022-11-29T09:37:43.982Z,7.30
2022-11-29T09:40:10.479Z,7.30
2022-11-29T09:42:36.955Z,7.30
2022-11-29T09:45:04.030Z,7.30
2022-11-29T09:47:32.728Z,7.30
2022-11-29T09:49:59.228Z,7.30
2022-11-29T09:52:25.697Z,7.40
2022-11-29T09:54:52.366Z,7.40
2022-11-29T09:57:19.622Z,7.30
2022-11-29T09:59:46.135Z,7.40
2022-11-29T10:02:15.867Z,7.40
2022-11-29T10:04:45.118Z,7.40
2022-11-29T10:07:11.887Z,7.50
2022-11-29T10:09:38.599Z,7.40
2022-11-29T10:12:05.105Z,7.40
2022-11-29T10:14:31.607Z,7.40
2022-11-29T10:16:58.205Z,7.40
2022-11-29T10:19:24.719Z,7.40
2022-11-29T10:21:51.236Z,7.50
2022-11-29T10:24:19.074Z,7.50
2022-11-29T10:26:45.718Z,7.50
2022-11-29T10:29:12.214Z,7.60
2022-11-29T10:31:42.652Z,7.60
2022-11-29T10:34:09.188Z,7.60
2022-11-29T10:36:35.687Z,7.50
2022-11-29T10:39:02.178Z,7.50
2022-11-29T10:41:28.665Z,7.50
2022-11-29T10:43:55.141Z,7.60
2022-11-29T10:46:21.842Z,7.60
2022-11-29T10:48:48.500Z,7.60
2022-11-29T10:51:14.992Z,7.70
2022-11-29T10:53:41.480Z,7.70
2022-11-29T10:56:08.046Z,7.60
2022-11-29T10:58:34.625Z,7.70
2022-11-29T11:01:01.306Z,7.70
2022-11-29T11:03:27.846Z,7.70
2022-11-29T11:05:54.415Z,7.70
2022-11-29T11:08:20.929Z,7.80
2022-11-29T11:10:53.031Z,7.70
2022-11-29T11:13:21.084Z,7.60
2022-11-29T11:15:47.624Z,7.60
2022-11-29T11:18:14.104Z,7.70
2022-11-29T11:20:40.604Z,7.70
2022-11-29T11:23:07.146Z,7.80
2022-11-29T11:25:36.677Z,7.90
2022-11-29T11:28:03.154Z,7.90
2022-11-29T11:30:29.731Z,8.00
2022-11-29T11:32:56.237Z,8.00
2022-11-29T11:35:22.767Z,8.00
2022-11-29T11:37:49.251Z,8.00
2022-11-29T11:40:15.767Z,8.10
2022-11-29T11:42:42.699Z,8.00
2022-11-29T11:45:09.363Z,8.00
2022-11-29T11:47:36.251Z,8.00
2022-11-29T11:50:03.344Z,8.00
2022-11-29T11:52:29.848Z,8.00
2022-11-29T11:54:56.443Z,8.00
2022-11-29T11:57:23.229Z,8.00
2022-11-29T11:59:49.805Z,8.00
2022-11-29T12:02:16.469Z,7.90
2022-11-29T12:04:43.403Z,7.90
2022-11-29T12:07:10.141Z,8.00
2022-11-29T12:09:36.681Z,8.00
2022-11-29T12:12:03.582Z,8.00
2022-11-29T12:14:30.126Z,8.00
2022-11-29T12:16:56.621Z,8.00
2022-11-29T12:19:23.115Z,8.00
2022-11-29T12:21:52.381Z,8.10
2022-11-29T12:24:18.912Z,8.10
2022-11-29T12:27:00.917Z,8.10
2022-11-29T12:29:27.468Z,8.10
2022-11-29T12:31:55.155Z,8.10
2022-11-29T12:34:22.770Z,8.00
2022-11-29T12:36:49.408Z,7.90
2022-11-29T12:39:15.919Z,8.00
2022-11-29T12:41:42.435Z,7.90
2022-11-29T12:44:09.284Z,7.90
2022-11-29T12:46:35.847Z,7.90
2022-11-29T12:49:02.484Z,7.90
2022-11-29T12:51:29.110Z,7.90
2022-11-29T12:53:55.599Z,7.90
2022-11-29T12:56:22.141Z,7.90
2022-11-29T12:58:48.662Z,8.00
2022-11-29T13:01:15.251Z,8.00
2022-11-29T13:03:41.835Z,8.00
2022-11-29T13:06:08.367Z,8.10
2022-11-29T13:08:34.850Z,8.00
2022-11-29T13:11:01.399Z,8.00
2022-11-29T13:13:27.887Z,8.00
2022-11-29T13:15:54.575Z,7.90
2022-11-29T13:18:21.108Z,7.90
2022-11-29T13:20:47.600Z,7.90
2022-11-29T13:23:14.248Z,7.90
2022-11-29T13:25:40.768Z,7.90
2022-11-29T13:28:07.258Z,7.90
2022-11-29T13:30:33.744Z,7.90
2022-11-29T13:33:00.252Z,7.80
2022-11-29T13:35:26.992Z,7.70
2022-11-29T13:37:55.329Z,7.70
2022-11-29T13:40:22.279Z,7.70
2022-11-29T13:42:50.946Z,7.80
2022-11-29T13:45:17.425Z,7.80
2022-11-29T13:47:43.938Z,7.80
2022-11-29T13:50:10.429Z,7.80
2022-11-29T13:52:36.948Z,7.80
2022-11-29T13:55:03.438Z,7.80
2022-11-29T13:57:38.938Z,7.70
2022-11-29T14:00:16.505Z,7.70
2022-11-29T14:02:43.093Z,7.70
2022-11-29T14:05:09.614Z,7.70
2022-11-29T14:07:36.382Z,7.70
2022-11-29T14:10:03.244Z,7.70
2022-11-29T14:12:31.037Z,7.70
2022-11-29T14:14:57.647Z,7.70
2022-11-29T14:17:24.128Z,7.70
2022-11-29T14:19:50.629Z,7.70
2022-11-29T14:22:17.123Z,7.80
2022-11-29T14:24:43.902Z,7.80
2022-11-29T14:27:12.331Z,7.70
2022-11-29T14:29:38.827Z,7.70
2022-11-29T14:32:05.328Z,7.60
2022-11-29T14:34:31.829Z,7.50
2022-11-29T14:36:58.349Z,7.50
2022-11-29T14:39:24.977Z,7.50
2022-11-29T14:41:51.483Z,7.50
2022-11-29T14:44:18.025Z,7.50
2022-11-29T14:46:44.568Z,7.50
2022-11-29T14:49:11.133Z,7.40
2022-11-29T14:51:37.602Z,7.50
2022-11-29T14:54:04.159Z,7.40
2022-11-29T14:56:31.511Z,7.50
2022-11-29T14:58:57.997Z,7.40
2022-11-29T15:01:24.527Z,7.40
2022-11-29T15:03:51.163Z,7.40
2022-11-29T15:06:17.956Z,7.40
2022-11-29T15:08:44.483Z,7.40
2022-11-29T15:11:10.969Z,7.40
2022-11-29T15:13:37.515Z,7.40
2022-11-29T15:16:08.882Z,7.40
2022-11-29T15:18:35.946Z,7.50
2022-11-29T15:21:02.423Z,7.50
2022-11-29T15:23:28.907Z,7.50
2022-11-29T15:25:55.415Z,7.50
2022-11-29T15:28:22.187Z,7.50
2022-11-29T15:30:48.931Z,7.50
2022-11-29T15:33:15.451Z,7.60
2022-11-29T15:35:42.017Z,7.60
2022-11-29T15:38:08.579Z,7.60
2022-11-29T15:40:36.947Z,7.60
2022-11-29T15:43:04.975Z,7.60
2022-11-29T15:45:31.554Z,7.60
2022-11-29T15:47:58.159Z,7.60
2022-11-29T15:50:25.731Z,7.60
2022-11-29T15:52:52.234Z,7.50
2022-11-29T15:55:18.749Z,7.50
2022-11-29T15:57:45.282Z,7.50
2022-11-29T16:00:11.769Z,7.50
2022-11-29T16:02:38.332Z,7.50
2022-11-29T16:05:04.819Z,7.40
2022-11-29T16:07:34.597Z,7.40
2022-11-29T16:10:01.146Z,7.40
2022-11-29T16:12:27.608Z,7.40
2022-11-29T16:14:55.719Z,7.40
2022-11-29T16:17:22.234Z,7.50
2022-11-29T16:19:48.768Z,7.50
2022-11-29T16:22:15.317Z,7.50
2022-11-29T16:24:41.906Z,7.50
2022-11-29T16:27:08.476Z,7.50
2022-11-29T16:29:35.022Z,7.50
2022-11-29T16:32:01.529Z,7.40
2022-11-29T16:34:28.180Z,7.40
2022-11-29T16:37:00.632Z,7.40
2022-11-29T16:39:27.575Z,7.40
2022-11-29T16:41:54.067Z,7.40
2022-11-29T16:44:20.541Z,7.50
2022-11-29T16:46:47.036Z,7.50
2022-11-29T16:49:13.542Z,7.50
2022-11-29T16:51:40.718Z,7.50
2022-11-29T16:54:07.222Z,7.50
2022-11-29T16:56:33.709Z,7.50
2022-11-29T16:59:24.688Z,7.50
2022-11-29T17:01:46.783Z,7.50
2022-11-29T17:04:13.336Z,7.50
2022-11-29T17:06:51.096Z,7.40
2022-11-29T17:09:17.587Z,7.40
2022-11-29T17:11:44.109Z,7.40
2022-11-29T17:14:10.875Z,7.40
2022-11-29T17:16:37.442Z,7.40
2022-11-29T17:19:04.017Z,7.40
2022-11-29T17:21:31.299Z,7.40
2022-11-29T17:23:57.807Z,7.40
2022-11-29T17:26:24.335Z,7.40
2022-11-29T17:28:51.034Z,7.40
2022-11-29T17:31:17.657Z,7.40
2022-11-29T17:33:44.285Z,7.40
2022-11-29T17:36:10.893Z,7.30
2022-11-29T17:38:37.406Z,7.40
2022-11-29T17:41:04.021Z,7.40
2022-11-29T17:43:30.532Z,7.40
2022-11-29T17:45:57.345Z,7.40
2022-11-29T17:48:23.896Z,7.40
2022-11-29T17:50:50.466Z,7.40
2022-11-29T17:53:16.997Z,7.50
2022-11-29T17:55:43.527Z,7.50
2022-11-29T17:58:10.068Z,7.50
2022-11-29T18:00:36.604Z,7.40
2022-11-29T18:03:03.274Z,7.50
2022-11-29T18:05:34.587Z,7.50
2022-11-29T18:08:01.661Z,7.50
2022-11-29T18:10:28.265Z,7.50
2022-11-29T18:12:54.856Z,7.50
2022-11-29T18:15:21.447Z,7.50
2022-11-29T18:17:48.063Z,7.50
2022-11-29T18:20:14.635Z,7.40
2022-11-29T18:22:41.135Z,7.40
2022-11-29T18:25:36.810Z,7.40
2022-11-29T18:27:54.317Z,7.40
2022-11-29T18:30:20.903Z,7.40
2022-11-29T18:32:47.482Z,7.30
2022-11-29T18:35:14.041Z,7.30
2022-11-29T18:38:13.410Z,7.20
2022-11-29T18:40:27.281Z,7.20
2022-11-29T18:42:53.784Z,7.20
2022-11-29T18:45:20.296Z,7.20
2022-11-29T18:47:47.035Z,7.10
2022-11-29T18:50:13.720Z,7.10
2022-11-29T18:52:40.921Z,7.10
2022-11-29T18:55:07.468Z,7.10
2022-11-29T18:57:34.030Z,7.10
2022-11-29T19:00:00.536Z,7.00
2022-11-29T19:02:27.042Z,7.10
2022-11-29T19:04:53.730Z,7.10
2022-11-29T19:07:20.290Z,7.10
2022-11-29T19:09:46.819Z,7.20
2022-11-29T19:12:13.317Z,7.20
2022-11-29T19:14:42.743Z,7.20
2022-11-29T19:17:11.752Z,7.20
2022-11-29T19:19:38.506Z,7.10
2022-11-29T19:22:05.090Z,7.10
2022-11-29T19:24:31.582Z,7.10
2022-11-29T19:26:59.185Z,7.10
2022-11-29T19:29:25.726Z,7.10
2022-11-29T19:31:52.287Z,7.10
2022-11-29T19:34:18.802Z,7.20
2022-11-29T19:36:45.648Z,7.10
2022-11-29T19:39:12.713Z,7.10
2022-11-29T19:41:39.525Z,7.00
2022-11-29T19:44:06.052Z,7.00
2022-11-29T19:46:32.637Z,7.00
2022-11-29T19:48:59.259Z,7.00
2022-11-29T19:51:25.905Z,6.90
2022-11-29T19:53:52.505Z,6.90
2022-11-29T19:56:20.553Z,6.90
2022-11-29T19:58:47.069Z,6.90
2022-11-29T20:01:13.710Z,6.90
2022-11-29T20:03:40.485Z,6.90
2022-11-29T20:06:07.245Z,7.00
2022-11-29T20:08:33.944Z,7.00
2022-11-29T20:11:00.449Z,7.00
2022-11-29T20:13:26.958Z,6.90
2022-11-29T20:15:53.485Z,6.90
2022-11-29T20:18:23.329Z,6.90
2022-11-29T20:20:49.804Z,6.90
2022-11-29T20:23:16.306Z,6.90
2022-11-29T20:25:42.838Z,6.90
2022-11-29T20:28:09.688Z,6.80
2022-11-29T20:30:36.233Z,6.80
2022-11-29T20:33:02.757Z,6.80
2022-11-29T20:35:29.365Z,6.80
2022-11-29T20:37:55.992Z,6.80
2022-11-29T20:40:22.472Z,6.80
2022-11-29T20:42:49.009Z,6.80
2022-11-29T20:45:15.574Z,6.70
2022-11-29T20:47:42.133Z,6.80
2022-11-29T20:50:08.730Z,6.70
2022-11-29T20:52:35.288Z,6.70
2022-11-29T20:55:01.876Z,6.70
2022-11-29T20:57:28.404Z,6.80
2022-11-29T20:59:55.059Z,6.80
2022-11-29T21:02:21.597Z,6.80
2022-11-29T21:04:48.311Z,6.80
2022-11-29T21:07:15.172Z,6.70
2022-11-29T21:09:41.653Z,6.80
2022-11-29T21:12:08.270Z,6.80
2022-11-29T21:14:34.873Z,6.80
2022-11-29T21:17:01.692Z,6.70
2022-11-29T21:19:28.348Z,6.70
2022-11-29T21:21:54.856Z,6.70
2022-11-29T21:24:21.418Z,6.70
2022-11-29T21:26:47.912Z,6.60
2022-11-29T21:29:14.454Z,6.60
2022-11-29T21:31:41.095Z,6.60
2022-11-29T21:34:08.634Z,6.60
2022-11-29T21:36:35.217Z,6.60
2022-11-29T21:39:05.164Z,6.60
2022-11-29T21:41:32.329Z,6.60
2022-11-29T21:44:06.425Z,6.60
2022-11-29T21:46:33.575Z,6.60
2022-11-29T21:49:00.198Z,6.70
2022-11-29T21:51:26.716Z,6.60
2022-11-29T21:53:53.299Z,6.60
2022-11-29T21:56:19.922Z,6.60
2022-11-29T21:58:46.446Z,6.60
2022-11-29T22:01:13.318Z,6.60
2022-11-29T22:03:40.022Z,6.60
2022-11-29T22:06:06.612Z,6.60
2022-11-29T22:08:33.144Z,6.60
2022-11-29T22:10:59.693Z,6.60
2022-11-29T22:13:26.215Z,6.60
2022-11-29T22:15:52.766Z,6.60
2022-11-29T22:18:19.319Z,6.60
2022-11-29T22:20:47.257Z,6.60
2022-11-29T22:23:13.783Z,6.60
2022-11-29T22:25:40.357Z,6.60
2022-11-29T22:28:06.859Z,6.60
2022-11-29T22:30:33.536Z,6.70
2022-11-29T22:33:00.299Z,6.70
2022-11-29T22:35:27.079Z,6.70
2022-11-29T22:37:53.710Z,6.70
2022-11-29T22:40:20.214Z,6.70
2022-11-29T22:42:46.916Z,6.60
2022-11-29T22:45:13.563Z,6.60
2022-11-29T22:47:40.082Z,6.60
2022-11-29T22:50:06.611Z,6.70
2022-11-29T22:52:33.119Z,6.70
2022-11-29T22:55:04.576Z,6.70
2022-11-29T22:57:31.692Z,6.70
2022-11-29T22:59:58.205Z,6.70
2022-11-29T23:02:24.773Z,6.70
2022-11-29T23:04:51.316Z,6.70
2022-11-29T23:07:17.874Z,6.70
2022-11-29T23:09:44.652Z,6.80
2022-11-29T23:12:11.235Z,6.80
2022-11-29T23:14:37.746Z,6.70
2022-11-29T23:17:04.304Z,6.80
2022-11-29T23:19:30.819Z,6.80
2022-11-29T23:21:57.335Z,6.70
2022-11-29T23:24:23.896Z,6.80
2022-11-29T23:26:50.446Z,6.80
2022-11-29T23:29:17.037Z,6.70
2022-11-29T23:31:43.589Z,6.70
2022-11-29T23:34:10.207Z,6.70
2022-11-29T23:36:36.816Z,6.70
2022-11-29T23:39:03.366Z,6.70
2022-11-29T23:41:29.935Z,6.70
2022-11-29T23:43:56.472Z,6.70
2022-11-29T23:46:23.010Z,6.80
2022-11-29T23:48:49.542Z,6.90
2022-11-29T23:51:16.067Z,6.90
2022-11-29T23:53:42.715Z,6.90
2022-11-29T23:56:09.258Z,7.00
2022-11-29T23:58:35.814Z,7.00
